Time;durP1;ratioP1;P1;durP2;ratioP2;P2;SDS_P1;SDS_P2;PMS_P1;PMS_P2;Temp;Humidity;BMP_temperature;BMP_pressure;BME280_temperature;BME280_humidity;BME280_pressure;Samples;Min_cycle;Max_cycle;Signal;HPM_P1;HPM_P2
2022/09/10 00:01:22;;;;;;;3.60;2.40;;;;;;;13.87;98.74;100846.00;5073295;28;20028;-90
2022/09/10 00:03:48;;;;;;;3.30;2.35;;;;;;;13.87;98.89;100849.47;5073221;28;20024;-90
2022/09/10 00:06:15;;;;;;;5.97;2.55;;;;;;;13.86;99.24;100857.34;5072558;28;20028;-89
2022/09/10 00:08:40;;;;;;;;;;;;;;;13.89;97.90;100857.25;5073644;28;20032;-90
2022/09/10 00:11:19;;;;;;;4.10;2.67;;;;;;;13.89;98.58;100846.81;5073226;28;19913;-89
2022/09/10 00:13:45;;;;;;;3.67;2.30;;;;;;;13.89;98.36;100845.09;5073138;28;20021;-89
2022/09/10 00:16:13;;;;;;;2.60;2.40;;;;;;;13.93;99.28;100844.97;5073390;28;20017;-89
2022/09/10 00:18:39;;;;;;;4.40;2.70;;;;;;;13.87;99.29;100841.66;5072785;28;20115;-89
2022/09/10 00:21:08;;;;;;;3.70;2.42;;;;;;;13.90;99.18;100840.69;5072808;28;20027;-89
2022/09/10 00:23:34;;;;;;;4.03;2.60;;;;;;;13.90;99.24;100838.94;5076988;28;20024;-89
2022/09/10 00:26:39;;;;;;;2.33;2.13;;;;;;;13.94;98.79;100839.72;5076482;28;20495;-88
2022/09/10 00:29:10;;;;;;;4.32;2.28;;;;;;;13.93;98.68;100839.75;5025133;28;20480;-89
2022/09/10 00:31:38;;;;;;;5.25;2.90;;;;;;;13.88;99.84;100842.50;5076779;28;20032;-89
2022/09/10 00:34:11;;;;;;;3.72;2.60;;;;;;;13.88;99.31;100845.09;5076054;28;20487;-90
2022/09/10 00:36:39;;;;;;;5.10;2.70;;;;;;;13.87;99.47;100844.28;5076373;28;20040;-90
2022/09/10 00:39:08;;;;;;;5.30;2.90;;;;;;;13.86;99.29;100833.84;5076449;28;20472;-89
2022/09/10 00:41:36;;;;;;;5.15;2.72;;;;;;;13.86;99.64;100839.06;5075505;28;20035;-89
2022/09/10 00:44:05;;;;;;;3.78;2.20;;;;;;;13.86;99.17;100836.47;5076768;28;20033;-89
2022/09/10 00:46:41;;;;;;;3.45;2.78;;;;;;;13.86;99.57;100841.69;5076475;28;20025;-90
2022/09/10 00:49:16;;;;;;;;;;;;;;;13.85;99.69;100839.97;5076635;28;20103;-89
2022/09/10 00:51:44;;;;;;;3.20;2.47;;;;;;;13.86;98.85;100833.84;5056383;28;19921;-90
2022/09/10 00:54:10;;;;;;;2.97;2.30;;;;;;;13.85;99.27;100843.44;5055658;28;20112;-89
2022/09/10 00:56:36;;;;;;;2.83;2.10;;;;;;;13.86;98.43;100833.84;5063338;28;20079;-90
2022/09/10 00:59:03;;;;;;;5.57;2.40;;;;;;;13.85;98.91;100835.63;5076570;28;20020;-88
2022/09/10 01:01:30;;;;;;;2.80;2.25;;;;;;;13.86;98.53;100837.34;5076390;28;20028;-89
2022/09/10 01:03:58;;;;;;;2.78;2.10;;;;;;;13.87;99.23;100844.28;5075113;28;20025;-90
2022/09/10 01:06:23;;;;;;;3.67;2.30;;;;;;;13.86;98.68;100846.91;5075671;28;20032;-90
2022/09/10 01:08:48;;;;;;;2.40;2.20;;;;;;;13.87;98.82;100844.28;5075677;28;20016;-90
2022/09/10 01:11:36;;;;;;;2.37;2.00;;;;;;;13.91;99.08;100850.25;5076016;28;20017;-90
2022/09/10 01:14:30;;;;;;;3.58;2.30;;;;;;;13.90;99.16;100853.75;5076483;28;20032;-90
2022/09/10 01:17:05;;;;;;;1.90;1.80;;;;;;;13.93;99.03;100851.06;5085327;28;20032;-89
2022/09/10 01:19:55;;;;;;;2.88;2.10;;;;;;;13.94;99.07;100847.56;5096049;28;20050;-89
2022/09/10 01:22:33;;;;;;;2.88;2.30;;;;;;;13.95;99.62;100854.47;5095590;28;20064;-89
2022/09/10 01:25:21;;;;;;;2.72;2.40;;;;;;;13.96;99.76;100850.09;5095346;28;20020;-90
2022/09/10 01:27:51;;;;;;;3.30;2.50;;;;;;;13.95;99.83;100841.44;5095803;28;20028;-89
2022/09/10 01:30:20;;;;;;;2.40;2.17;;;;;;;13.99;99.32;100853.47;5095663;28;20020;-90
2022/09/10 01:32:56;;;;;;;5.05;2.58;;;;;;;14.00;99.88;100849.97;5095321;28;20020;-90
2022/09/10 01:35:27;;;;;;;4.65;2.65;;;;;;;14.00;99.96;100847.34;5096076;28;20028;-90
2022/09/10 01:37:56;;;;;;;4.10;2.33;;;;;;;14.02;99.73;100858.63;5095486;28;20024;-90
2022/09/10 01:40:28;;;;;;;4.05;2.72;;;;;;;14.02;100.00;100842.97;5095735;28;20032;-89
2022/09/10 01:43:14;;;;;;;3.55;2.28;;;;;;;14.04;100.00;100854.22;5095511;28;20075;-90
2022/09/10 01:46:20;;;;;;;3.92;2.50;;;;;;;14.05;100.00;100860.28;5094392;28;20032;-89
2022/09/10 01:49:07;;;;;;;4.85;2.78;;;;;;;14.05;100.00;100852.44;5095278;28;20047;-88
2022/09/10 01:52:08;;;;;;;2.90;2.60;;;;;;;14.06;99.50;100854.16;5094639;28;20775;-88
2022/09/10 01:55:09;;;;;;;5.22;2.90;;;;;;;14.06;100.00;100851.53;5095502;28;20028;-88
2022/09/10 01:58:23;;;;;;;3.85;2.60;;;;;;;14.08;100.00;100846.25;5074473;28;20059;-89
2022/09/10 02:01:07;;;;;;;3.00;2.40;;;;;;;14.10;100.00;100853.16;5065297;28;20079;-87
2022/09/10 02:03:34;;;;;;;4.20;2.75;;;;;;;14.10;100.00;100840.13;5074611;28;20444;-88
2022/09/10 02:06:02;;;;;;;5.78;3.40;;;;;;;14.10;100.00;100847.09;5073373;28;20028;-88
2022/09/10 02:08:32;;;;;;;3.97;3.10;;;;;;;14.10;100.00;100837.50;5074566;28;20070;-87
2022/09/10 02:11:00;;;;;;;4.50;2.88;;;;;;;14.13;100.00;100836.56;5074400;28;20499;-87
2022/09/10 02:13:28;;;;;;;3.97;2.47;;;;;;;14.15;100.00;100832.16;5073945;28;20078;-87
2022/09/10 02:15:55;;;;;;;3.65;2.67;;;;;;;14.15;100.00;100843.44;5073679;28;20103;-87
2022/09/10 02:18:22;;;;;;;5.93;3.25;;;;;;;14.16;100.00;100833.88;5074165;28;20086;-88
2022/09/10 02:20:48;;;;;;;;;;;;;;;14.15;100.00;100838.22;5073550;28;20040;-87
2022/09/10 02:23:17;;;;;;;;;;;;;;;14.16;100.00;100828.66;5074051;28;19912;-88
2022/09/10 02:25:42;;;;;;;4.07;3.10;;;;;;;14.16;100.00;100836.47;5079004;28;19916;-88
2022/09/10 02:28:09;;;;;;;7.00;3.00;;;;;;;14.15;100.00;100829.53;5094071;28;20433;-88
2022/09/10 02:30:34;;;;;;;4.35;2.88;;;;;;;14.16;100.00;100834.69;5094081;28;20016;-88
2022/09/10 02:32:59;;;;;;;5.80;3.10;;;;;;;14.18;100.00;100834.69;5093813;28;20024;-88
2022/09/10 02:35:24;;;;;;;5.23;2.83;;;;;;;14.18;100.00;100830.28;5093987;28;20086;-88
2022/09/10 02:37:50;;;;;;;5.33;3.57;;;;;;;14.18;100.00;100827.69;5093698;28;20376;-87
2022/09/10 02:40:18;;;;;;;5.43;3.30;;;;;;;14.22;100.00;100823.22;5093575;28;20065;-87
2022/09/10 02:42:45;;;;;;;4.88;3.17;;;;;;;14.21;100.00;100819.78;5093303;28;20032;-87
2022/09/10 02:45:13;;;;;;;5.68;3.10;;;;;;;14.22;100.00;100828.44;5093543;28;20016;-87
2022/09/10 02:47:39;;;;;;;6.65;3.80;;;;;;;14.25;100.00;100825.75;5093213;28;20405;-85
2022/09/10 02:50:06;;;;;;;5.57;3.70;;;;;;;14.24;100.00;100824.03;5093241;28;20028;-87
2022/09/10 02:52:32;;;;;;;6.38;3.70;;;;;;;14.23;100.00;100827.53;5093519;28;20077;-87
2022/09/10 02:54:57;;;;;;;5.33;3.37;;;;;;;14.24;100.00;100826.66;5092873;28;20024;-88
2022/09/10 02:57:23;;;;;;;5.10;3.53;;;;;;;14.26;100.00;100819.63;5093503;28;20052;-87
2022/09/10 02:59:48;;;;;;;4.27;3.17;;;;;;;14.27;100.00;100829.16;5093237;28;20115;-89
2022/09/10 03:02:14;;;;;;;10.27;4.23;;;;;;;14.26;100.00;100824.84;5094049;28;20036;-88
2022/09/10 03:04:39;;;;;;;6.27;3.60;;;;;;;14.28;100.00;100822.19;5093860;28;20034;-89
2022/09/10 03:07:05;;;;;;;7.40;3.97;;;;;;;14.27;100.00;100821.34;5094164;28;20089;-88
2022/09/10 03:09:30;;;;;;;7.53;4.00;;;;;;;14.28;100.00;100827.41;5093226;28;20471;-88
2022/09/10 03:11:55;;;;;;;8.90;4.80;;;;;;;14.27;100.00;100821.34;5093495;28;20077;-88
2022/09/10 03:14:22;;;;;;;7.23;4.67;;;;;;;14.27;100.00;100818.72;5093609;28;20103;-88
2022/09/10 03:16:48;;;;;;;5.93;3.80;;;;;;;14.29;100.00;100826.50;5084068;28;20107;-87
2022/09/10 03:19:14;;;;;;;5.50;3.47;;;;;;;14.30;100.00;100823.00;5073111;28;20029;-87
2022/09/10 03:21:40;;;;;;;6.22;3.60;;;;;;;14.32;100.00;100823.81;5072641;28;20051;-86
2022/09/10 03:24:06;;;;;;;5.30;3.20;;;;;;;14.33;100.00;100828.97;5072512;28;20469;-87
2022/09/10 03:26:31;;;;;;;6.23;3.77;;;;;;;14.32;100.00;100821.19;5072684;28;20046;-87
2022/09/10 03:28:57;;;;;;;5.77;3.57;;;;;;;14.33;100.00;100828.13;5072853;28;20028;-87
2022/09/10 03:31:26;;;;;;;6.57;3.70;;;;;;;14.35;100.00;100829.78;5072179;28;20020;-86
2022/09/10 03:33:51;;;;;;;6.43;3.60;;;;;;;14.34;100.00;100829.84;5072709;28;20096;-87
2022/09/10 03:36:17;;;;;;;5.67;3.77;;;;;;;14.34;100.00;100829.84;5072675;28;20442;-86
2022/09/10 03:38:54;;;;;;;5.47;3.70;;;;;;;14.33;100.00;100823.75;5071584;28;20069;-87
2022/09/10 03:41:20;;;;;;;6.03;3.40;;;;;;;14.35;100.00;100823.72;5072881;28;20036;-87
2022/09/10 03:43:45;;;;;;;7.67;4.00;;;;;;;14.34;100.00;100820.22;5070258;28;20389;-85
2022/09/10 03:46:10;;;;;;;4.97;3.53;;;;;;;14.35;100.00;100813.28;5072519;28;20142;-87
2022/09/10 03:48:38;;;;;;;5.67;3.77;;;;;;;14.35;100.00;100821.94;5072886;28;20056;-86
2022/09/10 03:51:03;;;;;;;6.85;3.90;;;;;;;14.35;100.00;100824.56;5071443;28;20046;-86
2022/09/10 03:53:28;;;;;;;8.23;4.50;;;;;;;14.36;100.00;100823.66;5072582;28;20017;-87
2022/09/10 03:55:54;;;;;;;6.77;3.83;;;;;;;14.35;100.00;100813.28;5073404;28;20035;-86
2022/09/10 03:58:19;;;;;;;7.70;4.53;;;;;;;14.36;100.00;100812.34;5075433;28;20025;-85
2022/09/10 04:00:45;;;;;;;7.17;4.40;;;;;;;14.37;100.00;100808.84;5074857;28;20046;-87
2022/09/10 04:03:11;;;;;;;12.50;5.80;;;;;;;14.36;100.00;100817.56;5076251;28;20023;-86
2022/09/10 04:05:42;;;;;;;6.83;4.40;;;;;;;14.35;100.00;100814.13;5075729;28;20511;-86
2022/09/10 04:08:08;;;;;;;10.10;4.70;;;;;;;14.34;100.00;100806.34;5076293;28;20028;-86
2022/09/10 04:10:34;;;;;;;9.13;4.80;;;;;;;14.37;100.00;100808.84;5076271;28;20044;-87
2022/09/10 04:12:59;;;;;;;9.93;5.67;;;;;;;14.38;100.00;100804.47;5074620;28;20104;-86
2022/09/10 04:15:24;;;;;;;9.43;5.20;;;;;;;14.36;100.00;100804.50;5076432;28;20025;-86
2022/09/10 04:17:50;;;;;;;9.17;5.00;;;;;;;14.36;100.00;100805.38;5075573;28;20035;-86
2022/09/10 04:20:22;;;;;;;7.03;4.20;;;;;;;14.38;100.00;100801.88;5075178;28;20013;-87
2022/09/10 04:22:50;;;;;;;7.65;4.88;;;;;;;14.35;100.00;100801.06;5076063;28;20032;-87
2022/09/10 04:25:17;;;;;;;6.60;4.10;;;;;;;14.38;100.00;100801.88;5076267;28;20024;-87
2022/09/10 04:27:42;;;;;;;7.75;4.63;;;;;;;14.39;100.00;100800.97;5075249;28;20016;-87
2022/09/10 04:30:09;;;;;;;8.37;4.73;;;;;;;14.41;100.00;100799.16;5075652;28;20021;-86
2022/09/10 04:32:34;;;;;;;10.27;5.35;;;;;;;14.39;100.00;100807.03;5076099;28;20408;-87
2022/09/10 04:35:03;;;;;;;11.57;5.40;;;;;;;14.40;100.00;100798.28;5074889;28;20060;-88
2022/09/10 04:37:29;;;;;;;8.35;5.13;;;;;;;14.39;100.00;100804.41;5075575;28;20399;-87
2022/09/10 04:39:54;;;;;;;6.57;4.20;;;;;;;14.42;100.00;100803.47;5074723;28;20100;-87
2022/09/10 04:42:19;;;;;;;5.77;4.30;;;;;;;14.41;100.00;100804.38;5074736;28;20020;-87
2022/09/10 04:44:46;;;;;;;7.37;4.57;;;;;;;14.42;100.00;100803.47;5075308;28;20058;-86
2022/09/10 04:47:11;;;;;;;6.75;4.35;;;;;;;14.43;100.00;100807.78;5074938;28;20052;-88
2022/09/10 04:49:37;;;;;;;8.30;4.53;;;;;;;14.43;100.00;100813.00;5075416;28;20389;-87
2022/09/10 04:52:02;;;;;;;6.10;3.90;;;;;;;14.44;100.00;100817.31;5075863;28;20639;-86
2022/09/10 04:54:28;;;;;;;4.00;3.40;;;;;;;14.45;100.00;100812.06;5075021;28;20043;-88
2022/09/10 04:56:53;;;;;;;6.90;4.53;;;;;;;14.47;100.00;100814.63;5083249;28;20131;-88
2022/09/10 04:59:19;;;;;;;7.23;4.40;;;;;;;14.46;100.00;100813.78;5095764;28;20016;-87
2022/09/10 05:01:44;;;;;;;9.60;4.90;;;;;;;14.46;100.00;100808.56;5095057;28;20525;-88
2022/09/10 05:04:09;;;;;;;8.63;5.30;;;;;;;14.46;100.00;100812.91;5095870;28;20274;-88
2022/09/10 05:06:35;;;;;;;9.33;5.30;;;;;;;14.45;100.00;100809.47;5087879;28;20074;-89
2022/09/10 05:09:00;;;;;;;10.70;6.30;;;;;;;14.43;100.00;100811.25;5074633;28;20044;-89
2022/09/10 05:11:25;;;;;;;11.93;6.63;;;;;;;14.43;100.00;100811.25;5075485;28;20020;-89
2022/09/10 05:13:50;;;;;;;11.87;6.77;;;;;;;14.42;100.00;100811.28;5075745;28;20028;-89
2022/09/10 05:16:16;;;;;;;12.10;6.37;;;;;;;14.43;100.00;100813.88;5075186;28;20519;-89
2022/09/10 05:18:41;;;;;;;8.80;5.40;;;;;;;14.44;100.00;100805.13;5075489;28;20070;-90
2022/09/10 05:21:06;;;;;;;8.13;5.10;;;;;;;14.46;100.00;100802.47;5075246;28;20492;-89
2022/09/10 05:23:32;;;;;;;10.10;5.70;;;;;;;14.46;100.00;100810.31;5075386;28;20020;-90
2022/09/10 05:25:57;;;;;;;12.90;6.87;;;;;;;14.46;100.00;100812.91;5075788;28;20525;-91
2022/09/10 05:28:23;;;;;;;8.70;5.60;;;;;;;14.47;100.00;100807.63;5076076;28;20488;-89
2022/09/10 05:30:49;;;;;;;10.35;5.50;;;;;;;14.47;100.00;100812.00;5075663;28;20036;-89
2022/09/10 05:33:15;;;;;;;7.63;4.57;;;;;;;14.50;100.00;100817.16;5075465;28;20021;-91
2022/09/10 05:35:40;;;;;;;9.53;6.00;;;;;;;14.51;100.00;100814.47;5075219;28;20047;-90
2022/09/10 05:38:07;;;;;;;10.90;6.07;;;;;;;14.54;100.00;100807.44;5074835;28;20028;-92
2022/09/10 05:40:32;;;;;;;;;;;;;;;14.55;100.00;100814.38;5075849;28;20060;-90
2022/09/10 05:42:59;;;;;;;11.57;6.17;;;;;;;14.55;100.00;100811.78;5075204;28;19943;-90
2022/09/10 05:45:24;;;;;;;8.40;5.10;;;;;;;14.56;100.00;100816.94;5075273;28;20071;-90
2022/09/10 05:47:50;;;;;;;8.40;4.60;;;;;;;14.58;100.00;100812.53;5074800;28;20028;-89
2022/09/10 05:50:16;;;;;;;5.90;4.20;;;;;;;14.62;100.00;100816.75;5074962;28;20032;-89
2022/09/10 05:52:42;;;;;;;5.22;3.70;;;;;;;14.63;100.00;100815.84;5074780;28;20063;-89
2022/09/10 05:55:08;;;;;;;7.73;4.77;;;;;;;14.66;100.00;100817.50;5075377;28;20059;-90
2022/09/10 05:57:33;;;;;;;9.37;5.40;;;;;;;14.66;100.00;100814.88;5076026;28;20045;-91
2022/09/10 06:00:00;;;;;;;10.10;5.63;;;;;;;14.67;100.00;100817.47;5074963;28;20021;-90
2022/09/10 06:02:32;;;;;;;9.70;5.70;;;;;;;14.69;100.00;100819.19;5075462;28;20031;-91
2022/09/10 06:04:59;;;;;;;16.90;9.73;;;;;;;14.65;100.00;100821.84;5073942;28;20100;-91
2022/09/10 06:07:28;;;;;;;;;;;;;;;14.67;100.00;100824.47;5072259;28;20024;-87
2022/09/10 06:09:54;;;;;;;14.85;8.10;;;;;;;14.68;100.00;100820.94;5074160;28;19957;-91
2022/09/10 06:12:19;;;;;;;12.23;7.10;;;;;;;14.69;100.00;100821.78;5086797;28;20032;-93
2022/09/10 06:14:44;;;;;;;11.77;6.93;;;;;;;14.67;100.00;100820.09;5074978;28;20059;-90
2022/09/10 06:17:10;;;;;;;10.90;6.33;;;;;;;14.73;100.00;100818.19;5074630;28;20461;-86
2022/09/10 06:19:38;;;;;;;11.27;6.30;;;;;;;14.80;100.00;100823.16;5072653;28;20472;-83
2022/09/10 06:22:04;;;;;;;11.13;5.88;;;;;;;14.81;100.00;100824.84;5074485;28;20025;-89
2022/09/10 06:24:29;;;;;;;10.70;6.00;;;;;;;14.83;100.00;100827.44;5079109;28;20020;-92
2022/09/10 06:26:56;;;;;;;8.23;5.10;;;;;;;14.82;100.00;100828.31;5074184;28;20020;-89
2022/09/10 06:29:21;;;;;;;;;;;;;;;14.82;100.00;100833.56;5074854;28;20032;-89
2022/09/10 06:31:47;;;;;;;9.93;5.83;;;;;;;14.80;100.00;100835.34;5073801;28;20010;-89
2022/09/10 06:34:17;;;;;;;7.37;4.87;;;;;;;14.80;100.00;100836.22;5073999;28;20024;-89
2022/09/10 06:36:43;;;;;;;13.57;7.35;;;;;;;14.80;100.00;100828.38;5073783;28;20350;-90
2022/09/10 06:39:09;;;;;;;10.93;6.50;;;;;;;14.78;100.00;100831.94;5074383;28;20431;-91
2022/09/10 06:41:35;;;;;;;10.47;5.60;;;;;;;14.76;100.00;100834.59;5073543;28;20078;-89
2022/09/10 06:44:01;;;;;;;7.78;5.47;;;;;;;14.78;100.00;100837.16;5073497;28;20017;-90
2022/09/10 06:46:29;;;;;;;11.70;6.80;;;;;;;14.79;100.00;100837.13;5074095;28;20029;-89
2022/09/10 06:49:02;;;;;;;12.40;7.40;;;;;;;14.79;100.00;100841.47;5073275;28;20081;-89
2022/09/10 06:51:28;;;;;;;12.50;7.30;;;;;;;14.79;100.00;100836.25;5074400;28;20028;-89
2022/09/10 06:53:54;;;;;;;11.80;6.90;;;;;;;14.81;100.00;100842.28;5073954;28;20405;-90
2022/09/10 06:56:20;;;;;;;10.07;6.20;;;;;;;14.83;100.00;100845.72;5074940;28;20059;-89
2022/09/10 06:58:45;;;;;;;9.20;5.70;;;;;;;14.84;100.00;100844.81;5073164;28;20031;-90
2022/09/10 07:01:14;;;;;;;11.93;7.03;;;;;;;14.84;100.00;100847.44;5072326;28;20033;-88
2022/09/10 07:03:56;;;;;;;10.45;6.60;;;;;;;14.82;100.00;100842.22;5072846;28;20056;-88
2022/09/10 07:06:23;;;;;;;7.75;5.13;;;;;;;14.85;100.00;100843.03;5073661;28;20503;-89
2022/09/10 07:08:54;;;;;;;9.23;5.88;;;;;;;14.90;100.00;100843.75;5073412;28;20024;-89
2022/09/10 07:11:27;;;;;;;10.23;6.22;;;;;;;14.90;100.00;100843.75;5073270;28;20469;-89
2022/09/10 07:14:00;;;;;;;8.95;5.55;;;;;;;14.93;100.00;100849.72;5072997;28;20029;-88
2022/09/10 07:16:27;;;;;;;11.18;6.30;;;;;;;14.97;100.00;100847.84;5072966;28;20024;-90
2022/09/10 07:18:55;;;;;;;10.63;6.70;;;;;;;15.01;100.00;100849.47;5072881;28;20480;-83
2022/09/10 07:21:22;;;;;;;12.02;7.20;;;;;;;15.01;100.00;100841.63;5072600;28;20469;-87
2022/09/10 07:23:48;;;;;;;14.00;8.00;;;;;;;15.02;100.00;100848.56;5071782;28;20548;-88
2022/09/10 07:26:16;;;;;;;10.25;6.45;;;;;;;15.05;100.00;100858.06;5073145;28;20508;-89
2022/09/10 07:28:42;;;;;;;10.75;5.70;;;;;;;15.04;100.00;100848.50;5072856;28;20031;-88
2022/09/10 07:31:19;;;;;;;9.40;5.90;;;;;;;15.06;100.00;100851.94;5072579;28;20479;-86
2022/09/10 07:33:44;;;;;;;10.13;5.82;;;;;;;15.04;100.00;100856.34;5072812;28;20032;-86
2022/09/10 07:36:11;;;;;;;6.73;4.80;;;;;;;15.05;100.00;100855.44;5071868;28;20021;-84
2022/09/10 07:38:37;;;;;;;;;;;;;;;15.06;100.00;100858.00;5073027;28;20031;-84
2022/09/10 07:41:03;;;;;;;9.55;5.90;;;;;;;15.06;100.00;100863.22;5072601;28;19912;-85
2022/09/10 07:43:28;;;;;;;7.95;5.43;;;;;;;15.06;100.00;100850.16;5072215;28;20066;-86
2022/09/10 07:45:54;;;;;;;7.10;4.87;;;;;;;15.06;100.00;100867.59;5071639;28;20106;-85
2022/09/10 07:48:19;;;;;;;5.80;4.37;;;;;;;15.08;100.00;100864.03;5052661;28;20040;-86
2022/09/10 07:50:45;;;;;;;8.07;4.90;;;;;;;15.11;100.00;100860.44;5061794;28;20033;-87
2022/09/10 07:53:10;;;;;;;9.57;6.20;;;;;;;15.12;100.00;100865.66;5072283;28;20056;-89
2022/09/10 07:55:35;;;;;;;6.37;5.10;;;;;;;15.15;100.00;100867.28;5071992;28;20044;-88
2022/09/10 07:58:01;;;;;;;12.80;7.70;;;;;;;15.18;100.00;100874.16;5071570;28;20067;-88
2022/09/10 08:00:26;;;;;;;12.40;7.47;;;;;;;15.21;100.00;100874.91;5072870;28;20024;-90
2022/09/10 08:02:52;;;;;;;10.37;7.23;;;;;;;15.25;100.00;100876.53;5071728;28;20399;-90
2022/09/10 08:05:17;;;;;;;12.37;7.87;;;;;;;15.27;100.00;100877.34;5071192;28;20150;-89
2022/09/10 08:07:42;;;;;;;10.57;7.03;;;;;;;15.31;100.00;100885.91;5071421;28;20074;-89
2022/09/10 08:10:09;;;;;;;11.47;7.67;;;;;;;15.37;100.00;100884.84;5072326;28;20082;-88
2022/09/10 08:12:36;;;;;;;13.23;9.00;;;;;;;15.40;100.00;100882.13;5072132;28;20024;-88
2022/09/10 08:15:02;;;;;;;;;;;;;;;15.44;100.00;100894.19;5073126;28;20020;-89
2022/09/10 08:17:29;;;;;;;15.45;9.30;;;;;;;15.49;100.00;100888.78;5072678;28;20364;-89
2022/09/10 08:19:55;;;;;;;13.52;8.45;;;;;;;15.59;100.00;100883.19;5072170;28;20108;-88
2022/09/10 08:22:23;;;;;;;10.97;7.03;;;;;;;15.69;100.00;100890.69;5073073;28;20508;-88
2022/09/10 08:24:48;;;;;;;11.45;7.60;;;;;;;15.75;100.00;100898.34;5072549;28;20293;-90
2022/09/10 08:27:15;;;;;;;8.50;6.13;;;;;;;15.80;100.00;100901.63;5071750;28;20033;-85
2022/09/10 08:29:41;;;;;;;8.98;6.45;;;;;;;15.87;100.00;100910.16;5071574;28;20017;-87
2022/09/10 08:32:07;;;;;;;9.82;7.15;;;;;;;15.91;100.00;100911.75;5071695;28;20477;-86
2022/09/10 08:34:33;;;;;;;9.80;7.20;;;;;;;15.93;100.00;100911.69;5067257;28;20032;-87
2022/09/10 08:36:59;;;;;;;9.90;6.65;;;;;;;15.96;100.00;100922.06;5071216;28;20024;-87
2022/09/10 08:39:25;;;;;;;15.27;10.00;;;;;;;16.03;100.00;100926.16;5071230;28;20016;-87
2022/09/10 08:42:02;;;;;;;15.93;9.70;;;;;;;16.04;100.00;100931.31;5071752;28;20032;-87
2022/09/10 08:44:35;;;;;;;14.05;8.90;;;;;;;16.09;100.00;100923.31;5062356;28;20039;-86
2022/09/10 08:47:12;;;;;;;9.85;7.10;;;;;;;16.17;100.00;100931.72;5073660;28;20031;-87
2022/09/10 08:49:59;;;;;;;10.82;7.18;;;;;;;16.28;100.00;100933.09;5075302;28;20523;-88
2022/09/10 08:52:49;;;;;;;15.93;10.70;;;;;;;16.32;100.00;100937.31;5075097;28;20082;-88
2022/09/10 08:55:20;;;;;;;16.02;10.60;;;;;;;16.39;100.00;100932.66;5061134;28;20051;-88
2022/09/10 08:57:57;;;;;;;13.38;9.35;;;;;;;16.49;100.00;100941.91;5094754;28;20059;-91
2022/09/10 09:00:27;;;;;;;8.38;6.30;;;;;;;16.54;100.00;100936.50;5076707;28;20032;-90
2022/09/10 09:03:21;;;;;;;12.05;8.25;;;;;;;16.52;100.00;100940.03;5075725;28;20031;-92
2022/09/10 09:05:54;;;;;;;8.90;6.90;;;;;;;16.47;100.00;100941.09;5041480;28;20036;-90
2022/09/10 09:08:24;;;;;;;7.22;5.63;;;;;;;16.45;100.00;100948.16;5092877;28;20445;-93
2022/09/10 09:11:09;;;;;;;6.20;5.07;;;;;;;16.42;100.00;100943.03;5096237;28;20476;-91
2022/09/10 09:14:09;;;;;;;5.07;4.38;;;;;;;16.38;100.00;100960.63;5093519;28;20032;-91
2022/09/10 09:16:58;;;;;;;9.43;6.00;;;;;;;16.34;100.00;100956.41;5075230;28;20131;-89
2022/09/10 09:19:33;;;;;;;5.97;5.07;;;;;;;16.30;100.00;100955.69;5096159;28;20038;-89
2022/09/10 09:22:17;;;;;;;7.50;5.60;;;;;;;16.30;100.00;100954.84;5095450;28;20027;-90
2022/09/10 09:24:50;;;;;;;7.05;5.20;;;;;;;16.30;100.00;100954.84;5095675;28;20107;-90
2022/09/10 09:27:18;;;;;;;5.45;4.40;;;;;;;16.35;100.00;100952.88;5096205;28;20035;-91
2022/09/10 09:30:06;;;;;;;10.05;5.88;;;;;;;16.41;100.00;100963.16;5095605;28;20024;-90
2022/09/10 09:32:38;;;;;;;6.85;5.00;;;;;;;16.48;100.00;100959.38;5096082;28;20028;-91
2022/09/10 09:35:18;;;;;;;6.45;5.07;;;;;;;16.52;100.00;100960.97;5095708;28;20046;-90
2022/09/10 09:37:47;;;;;;;8.55;5.70;;;;;;;16.53;100.00;100961.81;5095201;28;20391;-91
2022/09/10 09:40:29;;;;;;;6.53;4.90;;;;;;;16.53;100.00;100961.81;5095981;28;20051;-90
2022/09/10 09:43:01;;;;;;;5.90;4.65;;;;;;;16.55;100.00;100967.84;5094705;28;20403;-90
2022/09/10 09:45:34;;;;;;;5.45;4.50;;;;;;;16.57;100.00;100957.31;5095981;28;20525;-92
2022/09/10 09:48:00;;;;;;;5.97;4.30;;;;;;;16.64;100.00;100971.91;5095741;28;20024;-92
2022/09/10 09:50:29;;;;;;;4.63;4.10;;;;;;;16.70;100.00;100963.78;5095304;28;20040;-90
2022/09/10 09:52:55;;;;;;;3.75;3.40;;;;;;;16.74;100.00;100968.00;5094650;28;20024;-89
2022/09/10 09:55:40;;;;;;;4.03;3.50;;;;;;;16.76;100.00;100957.44;5093956;28;20024;-90
2022/09/10 09:58:20;;;;;;;3.58;3.28;;;;;;;16.80;100.00;100959.88;5094919;28;20040;-90
2022/09/10 10:00:51;;;;;;;3.67;3.20;;;;;;;16.85;100.00;100958.84;5094425;28;20042;-86
2022/09/10 10:03:24;;;;;;;6.10;3.70;;;;;;;16.89;100.00;100952.59;5094858;28;20024;-92
2022/09/10 10:06:08;;;;;;;4.97;3.90;;;;;;;16.95;100.00;100947.13;5094092;28;20098;-88
2022/09/10 10:08:50;;;;;;;6.88;4.78;;;;;;;17.07;100.00;100948.38;5054704;28;20032;-89
2022/09/10 10:11:20;;;;;;;4.03;3.33;;;;;;;17.17;100.00;100952.31;5054046;28;20051;-89
2022/09/10 10:13:47;;;;;;;11.05;6.70;;;;;;;17.21;100.00;100959.16;5054388;28;20017;-90
2022/09/10 10:16:22;;;;;;;7.20;5.10;;;;;;;17.41;100.00;100975.84;5055094;28;20387;-91
2022/09/10 10:18:49;;;;;;;6.40;4.60;;;;;;;17.67;100.00;100989.63;5055011;28;20461;-89
2022/09/10 10:21:28;;;;;;;4.60;4.10;;;;;;;17.83;100.00;100989.81;5093918;28;20086;-88
2022/09/10 10:23:53;;;;;;;8.52;5.40;;;;;;;17.89;100.00;100987.78;5094690;28;20036;-91
2022/09/10 10:26:19;;;;;;;6.50;4.97;;;;;;;17.90;100.00;100986.88;5094820;28;20024;-91
2022/09/10 10:29:06;;;;;;;5.33;4.17;;;;;;;17.89;100.00;100977.28;5094545;28;20043;-91
2022/09/10 10:31:39;;;;;;;4.38;3.90;;;;;;;17.90;100.00;100978.16;5095064;28;20039;-91
2022/09/10 10:34:13;;;;;;;3.85;3.28;;;;;;;17.84;99.35;100973.16;5094896;28;20020;-93
2022/09/10 10:37:06;;;;;;;3.72;3.30;;;;;;;17.73;99.47;100979.72;5094620;28;20056;-91
2022/09/10 10:39:59;;;;;;;3.85;3.25;;;;;;;17.66;99.10;100983.53;5094913;28;20439;-91
2022/09/10 10:42:30;;;;;;;3.30;3.00;;;;;;;17.61;99.44;100982.88;5095253;28;20408;-91
2022/09/10 10:45:01;;;;;;;2.90;2.70;;;;;;;17.53;99.31;100988.44;5094387;28;20462;-90
2022/09/10 10:47:50;;;;;;;4.75;3.70;;;;;;;17.44;99.25;100997.56;5094483;28;20377;-92
2022/09/10 10:50:20;;;;;;;3.45;3.03;;;;;;;17.41;99.27;100992.44;5093651;28;20028;-88
2022/09/10 10:53:07;;;;;;;3.70;3.30;;;;;;;17.34;99.40;100990.97;5093671;28;20081;-86
2022/09/10 10:55:39;;;;;;;4.82;3.30;;;;;;;17.27;99.07;100997.41;5093880;28;20380;-87
2022/09/10 10:58:36;;;;;;;2.80;2.50;;;;;;;17.21;99.55;100988.00;5093126;28;20515;-88
2022/09/10 11:01:06;;;;;;;2.80;2.60;;;;;;;17.17;99.47;100996.06;5091114;28;20051;-87
2022/09/10 11:03:43;;;;;;;4.38;3.20;;;;;;;17.10;99.55;100991.09;5093440;28;20485;-88
2022/09/10 11:06:15;;;;;;;5.38;3.67;;;;;;;17.05;100.00;100998.28;5093404;28;20092;-89
2022/09/10 11:08:49;;;;;;;4.53;2.80;;;;;;;17.00;99.63;100997.59;5092659;28;20030;-88
2022/09/10 11:11:22;;;;;;;4.57;3.05;;;;;;;16.98;100.00;101007.31;5094071;28;20388;-89
2022/09/10 11:14:00;;;;;;;6.43;4.03;;;;;;;16.90;100.00;101004.06;5093485;28;20030;-89
2022/09/10 11:16:53;;;;;;;5.50;3.33;;;;;;;16.83;100.00;101008.72;5093803;28;20028;-89
2022/09/10 11:19:25;;;;;;;3.08;2.78;;;;;;;16.82;100.00;101005.25;5083476;28;20036;-89
2022/09/10 11:21:57;;;;;;;3.03;2.20;;;;;;;16.83;100.00;100993.00;5093468;28;20085;-89
2022/09/10 11:24:33;;;;;;;1.90;1.80;;;;;;;16.86;100.00;100994.66;5087251;28;20099;-89
2022/09/10 11:27:19;;;;;;;3.28;2.30;;;;;;;16.85;100.00;100999.00;5072668;28;20469;-90
2022/09/10 11:30:04;;;;;;;2.22;2.03;;;;;;;16.85;100.00;100996.41;5073247;28;20048;-90
2022/09/10 11:32:50;;;;;;;2.55;2.10;;;;;;;16.88;100.00;101005.94;5073370;28;20029;-90
2022/09/10 11:35:38;;;;;;;;;;;;;;;16.89;100.00;101007.63;5073425;28;20581;-90